Akron, Iowa
Current Conditions -  °F | °C
As of 4:15 AM on Saturday 20 Dec 2014 (Local Time) from KLRJ Reporting Station
Haze Haze  
Wind Chill: 26°   Ceiling: 500
Heat Index: 32°   Visibility: 3mi
Dew Point: 32°   Wind: 7mph
Humidity: 100%   Direction: 160°SSE
Pressure: 30.1"   Gusts: NA
Location:  42.83°N, 96.56°W
Report Text: KLRJ 201015Z AUTO 16006KT 3SM BR OVC005 M00/M00 A3010 RMK AO2
Loading
Personal Weather Stations






























Interactive Weather Map New forecast layout! Learn more

10-Day Weather Forecast

Advertisements
Track Severe Weather on mobile